Time;durP1;ratioP1;P1;durP2;ratioP2;P2;SDS_P1;SDS_P2;PMS_P1;PMS_P2;Temp;Humidity;BMP_temperature;BMP_pressure;BME280_temperature;BME280_humidity;BME280_pressure;Samples;Min_cycle;Max_cycle;Signal;HPM_P1;HPM_P2
2022/04/14 00:01:29;;;;;;;21.55;10.30;;;;;;;;;;8209729;28;20047;-78
2022/04/14 00:05:32;;;;;;;23.80;10.27;;;;;;;;;;8231680;28;20053;-79
2022/04/14 00:09:35;;;;;;;22.55;9.90;;;;;;;;;;8214921;28;20051;-78
2022/04/14 00:13:39;;;;;;;21.02;10.50;;;;;;;;;;8232234;28;20451;-78
2022/04/14 00:17:42;;;;;;;23.33;9.90;;;;;;;;;;8226414;28;20043;-78
2022/04/14 00:21:44;;;;;;;21.77;9.77;;;;;;;;;;8236475;28;20046;-78
2022/04/14 00:25:46;;;;;;;;;;;;;;;;;;8233667;28;20494;-79
2022/04/14 00:29:51;;;;;;;;;;;;;;;;;;8237017;28;20445;-78
2022/04/14 00:33:53;;;;;;;22.33;10.38;;;;;;;;;;8236666;28;19925;-79
2022/04/14 00:37:56;;;;;;;21.65;10.05;;;;;;;;;;8236654;28;20051;-78
2022/04/14 00:41:58;;;;;;;25.55;10.50;;;;;;;;;;8236030;28;20053;-79
2022/04/14 00:46:04;;;;;;;20.10;9.88;;;;;;;;;;8224422;28;20051;-78
2022/04/14 00:50:07;;;;;;;20.02;10.30;;;;;;;;;;8203798;28;20051;-78
2022/04/14 00:54:09;;;;;;;24.30;10.18;;;;;;;;;;8204192;28;20051;-78
2022/04/14 00:58:13;;;;;;;19.13;9.18;;;;;;;;;;8203593;29;20051;-79
2022/04/14 01:02:17;;;;;;;25.23;10.68;;;;;;;;;;8203794;28;20051;-78
2022/04/14 01:06:21;;;;;;;24.00;10.48;;;;;;;;;;8203013;29;20510;-78
2022/04/14 01:10:24;;;;;;;20.42;9.90;;;;;;;;;;8203830;29;20641;-78
2022/04/14 01:14:28;;;;;;;22.00;9.10;;;;;;;;;;8202456;28;20051;-78
2022/04/14 01:18:32;;;;;;;20.17;9.55;;;;;;;;;;8203205;29;20057;-79
2022/04/14 01:22:37;;;;;;;21.38;8.73;;;;;;;;;;8203186;29;20039;-79
2022/04/14 01:26:41;;;;;;;18.83;8.85;;;;;;;;;;8203473;29;20130;-78
2022/04/14 01:30:43;;;;;;;16.80;8.68;;;;;;;;;;8203613;28;20054;-78
2022/04/14 01:34:46;;;;;;;20.77;8.50;;;;;;;;;;8201922;28;20047;-79
2022/04/14 01:38:49;;;;;;;17.33;8.40;;;;;;;;;;8202671;28;20054;-78
2022/04/14 01:42:53;;;;;;;16.42;8.35;;;;;;;;;;8202393;28;20237;-78
2022/04/14 01:46:55;;;;;;;26.65;8.48;;;;;;;;;;8202114;29;20074;-78
2022/04/14 01:50:58;;;;;;;18.10;8.38;;;;;;;;;;8202582;28;20055;-79
2022/04/14 01:55:00;;;;;;;;;;;;;;;;;;8202850;28;20073;-79
2022/04/14 01:59:04;;;;;;;34.70;8.85;;;;;;;;;;8201950;28;19928;-79
2022/04/14 02:03:06;;;;;;;24.60;8.50;;;;;;;;;;8201792;29;20060;-79
2022/04/14 02:07:09;;;;;;;19.98;8.15;;;;;;;;;;8202164;28;20526;-79
2022/04/14 02:11:12;;;;;;;14.48;7.38;;;;;;;;;;8202113;29;20047;-79
2022/04/14 02:15:17;;;;;;;17.92;7.55;;;;;;;;;;8201945;28;20058;-78
2022/04/14 02:19:19;;;;;;;26.95;11.85;;;;;;;;;;8201750;29;20044;-79
2022/04/14 02:23:23;;;;;;;185.93;70.70;;;;;;;;;;8201902;29;20634;-79
2022/04/14 02:27:26;;;;;;;43.67;21.20;;;;;;;;;;8201773;29;20518;-79
2022/04/14 02:31:30;;;;;;;39.58;22.40;;;;;;;;;;8201237;29;20081;-79
2022/04/14 02:35:33;;;;;;;28.63;14.10;;;;;;;;;;8201256;29;20083;-79
2022/04/14 02:39:35;;;;;;;25.65;10.95;;;;;;;;;;8201653;29;20057;-79
2022/04/14 02:43:38;;;;;;;;;;;;;;;;;;8201988;29;20047;-79
2022/04/14 02:47:42;;;;;;;26.83;14.90;;;;;;;;;;8205829;28;19922;-79
2022/04/14 02:51:44;;;;;;;20.77;10.00;;;;;;;;;;8207435;29;20047;-79
2022/04/14 02:55:47;;;;;;;26.05;10.70;;;;;;;;;;8265793;28;20054;-78
2022/04/14 02:59:49;;;;;;;;;;;;;;;;;;8272338;28;20097;-79
2022/04/14 03:03:53;;;;;;;17.65;10.57;;;;;;;;;;8257515;28;19929;-79
2022/04/14 03:07:55;;;;;;;17.17;9.85;;;;;;;;;;8239656;28;20565;-79
2022/04/14 03:11:58;;;;;;;23.13;10.32;;;;;;;;;;8239435;28;20102;-79
2022/04/14 03:16:00;;;;;;;18.35;9.00;;;;;;;;;;8238692;28;20105;-79
2022/04/14 03:20:10;;;;;;;20.92;10.80;;;;;;;;;;8238602;28;20055;-78
2022/04/14 03:24:12;;;;;;;23.60;10.30;;;;;;;;;;8238688;28;20094;-79
2022/04/14 03:28:15;;;;;;;20.80;10.40;;;;;;;;;;8238256;28;20130;-79
2022/04/14 03:32:17;;;;;;;24.98;8.75;;;;;;;;;;8238163;28;20133;-80
2022/04/14 03:36:21;;;;;;;18.25;8.43;;;;;;;;;;8238407;28;20101;-79
2022/04/14 03:40:24;;;;;;;26.90;8.52;;;;;;;;;;8238011;28;20061;-79
2022/04/14 03:44:26;;;;;;;19.33;8.25;;;;;;;;;;8238433;28;20482;-79
2022/04/14 03:48:29;;;;;;;;;;;;;;;;;;8237926;28;20056;-79
2022/04/14 03:52:32;;;;;;;;;;;;;;;;;;8238176;28;19922;-79
2022/04/14 03:56:35;;;;;;;19.55;8.50;;;;;;;;;;8236836;28;19922;-79
2022/04/14 04:00:37;;;;;;;20.15;9.48;;;;;;;;;;8237542;28;20062;-79
2022/04/14 04:04:39;;;;;;;;;;;;;;;;;;8238104;28;20069;-79
2022/04/14 04:08:43;;;;;;;21.02;9.02;;;;;;;;;;8237283;28;19929;-79
2022/04/14 04:12:46;;;;;;;28.63;12.43;;;;;;;;;;8237208;28;20047;-79
2022/04/14 04:16:49;;;;;;;28.15;11.45;;;;;;;;;;8237004;28;20487;-79
2022/04/14 04:20:51;;;;;;;31.10;12.90;;;;;;;;;;8236753;28;20047;-79
2022/04/14 04:24:57;;;;;;;37.40;15.63;;;;;;;;;;8236696;28;20058;-79
2022/04/14 04:28:59;;;;;;;32.55;11.10;;;;;;;;;;8236548;28;20054;-79
2022/04/14 04:33:02;;;;;;;27.05;11.68;;;;;;;;;;8236459;28;20043;-79
2022/04/14 04:37:05;;;;;;;24.95;9.02;;;;;;;;;;8236314;28;20047;-79
2022/04/14 04:41:09;;;;;;;21.10;8.43;;;;;;;;;;8236661;28;20054;-79
2022/04/14 04:45:12;;;;;;;19.27;7.85;;;;;;;;;;8237278;28;20073;-79
2022/04/14 04:49:14;;;;;;;19.60;8.98;;;;;;;;;;8236188;28;20051;-78
2022/04/14 04:53:17;;;;;;;20.67;8.82;;;;;;;;;;8236853;28;20047;-78
2022/04/14 04:57:21;;;;;;;19.42;8.10;;;;;;;;;;8235622;28;20235;-79
2022/04/14 05:01:23;;;;;;;18.23;8.00;;;;;;;;;;8235672;28;20050;-79
2022/04/14 05:05:26;;;;;;;15.40;7.50;;;;;;;;;;8222976;28;20410;-79
2022/04/14 05:09:29;;;;;;;17.35;8.43;;;;;;;;;;8213960;28;20097;-79
2022/04/14 05:13:33;;;;;;;13.98;7.22;;;;;;;;;;8227601;28;20051;-79
2022/04/14 05:17:35;;;;;;;15.65;8.60;;;;;;;;;;8235051;28;20135;-78
2022/04/14 05:21:38;;;;;;;15.05;8.50;;;;;;;;;;8235335;28;20046;-79
2022/04/14 05:25:41;;;;;;;15.70;6.72;;;;;;;;;;8235788;28;20061;-79
2022/04/14 05:29:45;;;;;;;26.65;11.27;;;;;;;;;;8235118;28;20050;-78
2022/04/14 05:33:49;;;;;;;29.13;15.70;;;;;;;;;;8234859;28;20054;-77
2022/04/14 05:37:52;;;;;;;29.70;15.27;;;;;;;;;;8235840;28;20467;-79
2022/04/14 05:41:55;;;;;;;25.30;16.30;;;;;;;;;;8235175;28;20501;-79
2022/04/14 05:46:01;;;;;;;76.80;26.88;;;;;;;;;;8234255;28;20050;-79
2022/04/14 05:50:04;;;;;;;45.83;17.45;;;;;;;;;;8229076;28;20061;-79
2022/04/14 05:54:07;;;;;;;27.63;13.48;;;;;;;;;;8224766;28;20062;-79
2022/04/14 05:58:10;;;;;;;49.38;19.27;;;;;;;;;;8233849;28;20047;-79
2022/04/14 06:02:15;;;;;;;62.97;21.90;;;;;;;;;;8234477;28;20495;-79
2022/04/14 06:06:18;;;;;;;37.83;17.77;;;;;;;;;;8234058;28;20051;-78
2022/04/14 06:10:21;;;;;;;16.77;9.45;;;;;;;;;;8234074;28;20134;-79
2022/04/14 06:14:25;;;;;;;16.08;8.10;;;;;;;;;;8234303;28;20051;-79
2022/04/14 06:18:29;;;;;;;10.65;5.35;;;;;;;;;;8234960;28;20141;-77
2022/04/14 06:22:37;;;;;;;18.05;8.85;;;;;;;;;;8231502;28;20047;-80
2022/04/14 06:26:40;;;;;;;9.55;5.65;;;;;;;;;;8244050;28;20050;-78
2022/04/14 06:30:42;;;;;;;12.57;8.00;;;;;;;;;;8246629;28;20042;-78
2022/04/14 06:34:47;;;;;;;14.77;10.25;;;;;;;;;;8256334;28;20054;-78
2022/04/14 06:38:49;;;;;;;16.83;5.50;;;;;;;;;;8252682;28;20057;-78
2022/04/14 06:42:53;;;;;;;8.88;5.15;;;;;;;;;;8246944;28;20047;-78
2022/04/14 06:46:56;;;;;;;7.72;4.20;;;;;;;;;;8242761;28;20672;-78
2022/04/14 06:51:01;;;;;;;9.63;5.03;;;;;;;;;;8232013;28;20158;-79
2022/04/14 06:55:07;;;;;;;8.07;4.00;;;;;;;;;;8229433;28;20062;-79
2022/04/14 06:59:13;;;;;;;20.75;16.23;;;;;;;;;;8241121;28;20161;-78
2022/04/14 07:03:26;;;;;;;9.93;5.50;;;;;;;;;;8227311;28;20042;-78
2022/04/14 07:07:30;;;;;;;8.18;4.38;;;;;;;;;;8217220;28;20117;-78
2022/04/14 07:11:33;;;;;;;6.28;3.10;;;;;;;;;;8218531;28;20402;-79
2022/04/14 07:15:36;;;;;;;6.68;3.70;;;;;;;;;;8214798;28;20051;-78
2022/04/14 07:19:39;;;;;;;11.73;8.63;;;;;;;;;;8226156;28;20042;-78
2022/04/14 07:23:44;;;;;;;11.50;7.75;;;;;;;;;;8231726;28;20459;-78
2022/04/14 07:27:47;;;;;;;7.22;4.00;;;;;;;;;;8230681;28;20530;-78
2022/04/14 07:31:50;;;;;;;9.38;5.13;;;;;;;;;;8232015;28;20150;-78
2022/04/14 07:35:53;;;;;;;12.20;6.20;;;;;;;;;;8238075;28;20054;-78
2022/04/14 07:39:58;;;;;;;6.88;3.20;;;;;;;;;;8238817;28;20049;-79
2022/04/14 07:44:01;;;;;;;6.70;2.85;;;;;;;;;;8238484;28;20051;-79
2022/04/14 07:48:05;;;;;;;10.82;7.15;;;;;;;;;;8237361;28;20066;-78
2022/04/14 07:52:08;;;;;;;5.55;3.22;;;;;;;;;;8237923;28;20486;-79
2022/04/14 07:56:12;;;;;;;6.07;3.25;;;;;;;;;;8237964;28;20479;-78
2022/04/14 08:00:17;;;;;;;15.57;6.30;;;;;;;;;;8237769;28;20141;-79
2022/04/14 08:04:20;;;;;;;4.93;3.10;;;;;;;;;;8237246;28;20105;-78
2022/04/14 08:08:24;;;;;;;9.07;3.50;;;;;;;;;;8237239;28;20050;-78
2022/04/14 08:12:29;;;;;;;7.05;4.00;;;;;;;;;;8237088;28;20098;-78
2022/04/14 08:16:32;;;;;;;7.15;3.95;;;;;;;;;;8236946;28;20066;-79
2022/04/14 08:20:39;;;;;;;9.18;3.67;;;;;;;;;;8236981;28;20503;-78
2022/04/14 08:24:44;;;;;;;9.90;5.90;;;;;;;;;;8236977;28;20415;-79
2022/04/14 08:28:48;;;;;;;7.40;3.63;;;;;;;;;;8236558;28;20047;-79
2022/04/14 08:32:53;;;;;;;11.63;7.63;;;;;;;;;;8236346;28;20046;-79
2022/04/14 08:36:55;;;;;;;10.25;5.93;;;;;;;;;;8236220;28;20050;-78
2022/04/14 08:41:08;;;;;;;21.70;13.65;;;;;;;;;;8236419;28;20046;-78
2022/04/14 08:45:14;;;;;;;12.00;5.30;;;;;;;;;;8235883;28;20046;-78
2022/04/14 08:49:17;;;;;;;18.15;10.95;;;;;;;;;;8235919;28;20150;-79
2022/04/14 08:53:24;;;;;;;18.65;10.48;;;;;;;;;;8236252;28;20499;-78
2022/04/14 08:57:28;;;;;;;10.50;6.53;;;;;;;;;;8236121;28;20098;-79
2022/04/14 09:01:33;;;;;;;17.13;10.82;;;;;;;;;;8236003;28;20070;-79
2022/04/14 09:05:36;;;;;;;33.10;19.08;;;;;;;;;;8235820;28;20524;-79
2022/04/14 09:09:38;;;;;;;10.95;6.70;;;;;;;;;;8235188;28;20081;-79
2022/04/14 09:13:44;;;;;;;13.25;9.13;;;;;;;;;;8234619;28;20047;-79
2022/04/14 09:17:49;;;;;;;12.50;7.45;;;;;;;;;;8235450;28;20473;-79
2022/04/14 09:21:59;;;;;;;12.05;7.20;;;;;;;;;;8234749;28;20051;-77
2022/04/14 09:26:11;;;;;;;13.35;7.75;;;;;;;;;;8235488;28;20066;-78
2022/04/14 09:30:19;;;;;;;16.70;8.95;;;;;;;;;;8234637;28;20403;-79
2022/04/14 09:34:48;;;;;;;11.88;6.82;;;;;;;;;;8234311;28;20077;-79
2022/04/14 09:38:53;;;;;;;13.77;8.40;;;;;;;;;;8233973;28;20061;-79
2022/04/14 09:42:56;;;;;;;17.30;9.45;;;;;;;;;;8234163;28;20047;-78
2022/04/14 09:46:59;;;;;;;17.15;11.00;;;;;;;;;;8233649;28;20054;-78
2022/04/14 09:51:04;;;;;;;15.18;9.77;;;;;;;;;;8233935;28;20081;-79
2022/04/14 09:55:10;;;;;;;16.77;9.15;;;;;;;;;;8233239;28;20061;-79
2022/04/14 09:59:14;;;;;;;35.58;15.13;;;;;;;;;;8233318;28;20038;-79
2022/04/14 10:03:19;;;;;;;25.48;12.70;;;;;;;;;;8233598;28;20050;-78
2022/04/14 10:07:23;;;;;;;21.02;10.70;;;;;;;;;;8233333;28;20138;-79
2022/04/14 10:11:27;;;;;;;15.70;8.60;;;;;;;;;;8233370;28;20057;-79
2022/04/14 10:15:31;;;;;;;16.52;9.43;;;;;;;;;;8233500;28;20569;-79
2022/04/14 10:19:36;;;;;;;13.15;7.35;;;;;;;;;;8233073;28;20057;-79
2022/04/14 10:23:42;;;;;;;21.48;14.05;;;;;;;;;;8233033;28;20050;-79
2022/04/14 10:27:46;;;;;;;14.07;8.18;;;;;;;;;;8233570;28;20050;-79
2022/04/14 10:31:53;;;;;;;12.65;7.38;;;;;;;;;;8232828;28;20046;-78
2022/04/14 10:35:57;;;;;;;15.93;7.72;;;;;;;;;;8233300;28;20130;-79
2022/04/14 10:40:02;;;;;;;13.23;7.00;;;;;;;;;;8232532;28;20423;-79
2022/04/14 10:44:06;;;;;;;16.90;7.72;;;;;;;;;;8232748;28;20487;-79
2022/04/14 10:48:09;;;;;;;14.95;8.55;;;;;;;;;;8232608;28;20050;-79
2022/04/14 10:52:26;;;;;;;12.77;7.47;;;;;;;;;;8233196;28;20050;-77
2022/04/14 10:56:53;;;;;;;13.73;7.38;;;;;;;;;;8264171;28;20457;-76
2022/04/14 11:00:56;;;;;;;11.13;6.60;;;;;;;;;;8264827;28;20050;-80
2022/04/14 11:04:59;;;;;;;14.13;6.55;;;;;;;;;;8234438;28;20403;-80
2022/04/14 11:09:06;;;;;;;11.93;6.95;;;;;;;;;;8232138;28;20058;-80
2022/04/14 11:13:11;;;;;;;12.90;6.72;;;;;;;;;;8238339;28;20475;-79
2022/04/14 11:18:00;;;;;;;9.95;6.03;;;;;;;;;;8238327;28;20050;-79
2022/04/14 11:22:07;;;;;;;14.88;7.00;;;;;;;;;;8238478;28;20729;-79
2022/04/14 11:26:12;;;;;;;11.75;6.60;;;;;;;;;;8228878;28;20051;-79
2022/04/14 11:30:40;;;;;;;14.43;6.70;;;;;;;;;;8217047;28;20054;-78
2022/04/14 11:34:44;;;;;;;11.32;5.70;;;;;;;;;;8235288;28;20054;-78
2022/04/14 11:39:08;;;;;;;15.38;5.97;;;;;;;;;;8232271;28;20134;-79
2022/04/14 11:43:11;;;;;;;10.40;6.53;;;;;;;;;;8216468;28;20139;-78
2022/04/14 11:47:16;;;;;;;11.63;5.80;;;;;;;;;;8237660;28;20067;-77
2022/04/14 11:51:19;;;;;;;12.45;5.95;;;;;;;;;;8234276;28;20054;-80
2022/04/14 11:55:35;;;;;;;12.55;5.90;;;;;;;;;;8236588;28;20051;-79
2022/04/14 11:59:40;;;;;;;13.55;6.90;;;;;;;;;;8237481;28;20466;-79
2022/04/14 12:03:45;;;;;;;13.00;6.47;;;;;;;;;;8236211;28;20055;-80
2022/04/14 12:07:48;;;;;;;10.35;6.57;;;;;;;;;;8236493;28;20077;-78
2022/04/14 12:11:51;;;;;;;15.23;8.77;;;;;;;;;;8237191;28;20054;-77
2022/04/14 12:16:05;;;;;;;12.05;6.35;;;;;;;;;;8236933;28;20491;-78
2022/04/14 12:20:10;;;;;;;15.88;7.53;;;;;;;;;;8235901;28;20093;-77
2022/04/14 12:24:13;;;;;;;12.45;5.70;;;;;;;;;;8236027;28;20130;-79
2022/04/14 12:28:17;;;;;;;10.65;6.03;;;;;;;;;;8236098;28;20075;-79
2022/04/14 12:32:25;;;;;;;10.95;5.85;;;;;;;;;;8236644;28;20194;-80
2022/04/14 12:36:37;;;;;;;11.00;6.47;;;;;;;;;;8236837;28;20055;-80
2022/04/14 12:40:54;;;;;;;12.13;6.07;;;;;;;;;;8236124;28;20057;-79
2022/04/14 12:45:04;;;;;;;13.85;6.18;;;;;;;;;;8221153;28;20079;-77
2022/04/14 12:49:08;;;;;;;9.52;5.60;;;;;;;;;;8221243;28;20071;-77
2022/04/14 12:53:13;;;;;;;10.18;6.35;;;;;;;;;;8204398;29;20051;-76
2022/04/14 13:15:10;;;;;;;11.10;6.40;;;;;;;;;;8419403;27;20493;-75
2022/04/14 13:19:15;;;;;;;14.55;6.45;;;;;;;;;;8394518;28;20106;-76
2022/04/14 13:23:20;;;;;;;12.65;6.28;;;;;;;;;;8422013;28;20044;-75
2022/04/14 13:27:23;;;;;;;10.63;6.05;;;;;;;;;;8421967;28;20040;-75
2022/04/14 13:31:28;;;;;;;17.63;7.88;;;;;;;;;;8406487;28;20080;-75
2022/04/14 13:35:32;;;;;;;10.68;6.13;;;;;;;;;;8390907;28;20045;-76
2022/04/14 13:39:35;;;;;;;10.55;5.93;;;;;;;;;;8390713;28;20059;-76
2022/04/14 13:43:38;;;;;;;11.18;6.28;;;;;;;;;;8389650;28;20041;-75
2022/04/14 13:47:44;;;;;;;35.15;12.23;;;;;;;;;;8395267;28;20040;-77
2022/04/14 13:51:47;;;;;;;13.15;5.63;;;;;;;;;;8393699;28;20049;-77
2022/04/14 13:55:50;;;;;;;15.82;6.57;;;;;;;;;;8395135;28;20181;-77
2022/04/14 13:59:53;;;;;;;15.15;8.50;;;;;;;;;;8394483;28;20044;-77
2022/04/14 14:03:59;;;;;;;12.95;7.35;;;;;;;;;;8391263;28;20510;-75
2022/04/14 14:08:02;;;;;;;10.45;5.85;;;;;;;;;;8410521;28;20400;-75
2022/04/14 14:12:06;;;;;;;20.55;7.70;;;;;;;;;;8403191;28;20061;-75
2022/04/14 14:16:10;;;;;;;12.35;6.90;;;;;;;;;;8409747;28;20118;-76
2022/04/14 14:20:15;;;;;;;12.02;7.65;;;;;;;;;;8398143;28;20485;-76
2022/04/14 14:24:23;;;;;;;51.92;23.60;;;;;;;;;;8378729;28;20122;-78
2022/04/14 14:28:27;;;;;;;12.27;6.90;;;;;;;;;;8367873;28;20140;-76
2022/04/14 14:32:30;;;;;;;10.82;6.55;;;;;;;;;;8366660;28;20131;-76
2022/04/14 14:36:36;;;;;;;12.63;6.70;;;;;;;;;;8367448;28;20053;-78
2022/04/14 14:40:39;;;;;;;16.38;8.32;;;;;;;;;;8367034;28;20048;-76
2022/04/14 14:44:42;;;;;;;15.95;8.40;;;;;;;;;;8367061;28;20048;-77
2022/04/14 14:48:45;;;;;;;17.42;9.27;;;;;;;;;;8367929;28;20041;-77
2022/04/14 14:52:55;;;;;;;14.82;8.40;;;;;;;;;;8394577;28;20076;-76
2022/04/14 14:57:03;;;;;;;14.57;8.07;;;;;;;;;;8389130;28;20483;-76
2022/04/14 15:01:08;;;;;;;19.55;10.73;;;;;;;;;;8367100;28;20045;-75
2022/04/14 15:05:16;;;;;;;12.68;7.10;;;;;;;;;;8366680;28;20052;-76
2022/04/14 15:09:22;;;;;;;11.85;7.25;;;;;;;;;;8396040;28;20083;-77
2022/04/14 15:13:32;;;;;;;16.02;8.40;;;;;;;;;;8388594;28;20408;-77
2022/04/14 15:17:36;;;;;;;15.27;8.40;;;;;;;;;;8384528;28;20139;-77
2022/04/14 15:21:40;;;;;;;14.45;7.70;;;;;;;;;;8390439;28;20037;-77
2022/04/14 15:25:47;;;;;;;18.15;8.45;;;;;;;;;;8387292;28;20499;-77
2022/04/14 15:29:50;;;;;;;15.20;9.35;;;;;;;;;;8365087;28;20098;-77
2022/04/14 15:33:54;;;;;;;16.05;9.50;;;;;;;;;;8366187;28;20507;-77
2022/04/14 15:37:57;;;;;;;24.52;13.27;;;;;;;;;;8370008;28;20040;-77
2022/04/14 15:42:02;;;;;;;16.58;8.43;;;;;;;;;;8364401;28;20044;-78
2022/04/14 15:46:06;;;;;;;17.75;8.80;;;;;;;;;;8367587;28;20048;-76
2022/04/14 15:50:18;;;;;;;29.30;18.27;;;;;;;;;;8394874;28;20098;-77
2022/04/14 15:54:25;;;;;;;28.30;15.30;;;;;;;;;;8396029;28;20480;-77
2022/04/14 15:58:30;;;;;;;32.42;17.20;;;;;;;;;;8396650;28;20072;-77
2022/04/14 16:02:33;;;;;;;35.95;16.15;;;;;;;;;;8384325;28;20053;-77
2022/04/14 16:06:36;;;;;;;59.50;30.33;;;;;;;;;;8361320;28;20051;-77
2022/04/14 16:15:04;;;;;;;45.72;26.88;;;;;;;;;;8374785;28;20127;-77
2022/04/14 16:19:14;;;;;;;37.00;17.83;;;;;;;;;;8376660;28;20044;-77
2022/04/14 16:23:20;;;;;;;28.05;17.65;;;;;;;;;;8381114;28;20040;-77
2022/04/14 16:27:23;;;;;;;27.20;15.77;;;;;;;;;;8395367;28;20119;-77
2022/04/14 16:31:27;;;;;;;13.85;7.80;;;;;;;;;;8397213;28;20045;-77
2022/04/14 16:35:30;;;;;;;27.52;14.00;;;;;;;;;;8395579;28;20044;-77
2022/04/14 16:39:33;;;;;;;43.20;21.58;;;;;;;;;;8395353;28;20036;-77
2022/04/14 16:43:35;;;;;;;25.42;12.73;;;;;;;;;;8392571;28;20043;-77
2022/04/14 16:47:40;;;;;;;25.77;14.48;;;;;;;;;;8387885;28;20040;-77
2022/04/14 16:51:44;;;;;;;15.52;8.35;;;;;;;;;;8370360;28;20044;-77
2022/04/14 16:55:48;;;;;;;17.02;12.18;;;;;;;;;;8367679;28;20045;-77
2022/04/14 16:59:52;;;;;;;13.65;7.22;;;;;;;;;;8363184;28;20124;-77
2022/04/14 17:03:57;;;;;;;17.00;6.72;;;;;;;;;;8360343;28;20052;-77
2022/04/14 17:08:01;;;;;;;13.15;6.53;;;;;;;;;;8364349;28;20041;-77
2022/04/14 17:12:06;;;;;;;9.90;6.10;;;;;;;;;;8364432;28;20053;-77
2022/04/14 17:16:10;;;;;;;10.57;6.25;;;;;;;;;;8366355;28;20424;-77
2022/04/14 17:20:16;;;;;;;10.68;5.72;;;;;;;;;;8361032;28;20099;-77
2022/04/14 17:24:22;;;;;;;44.63;17.35;;;;;;;;;;8375311;28;20053;-77
2022/04/14 17:28:27;;;;;;;15.85;8.60;;;;;;;;;;8372314;28;20051;-77
2022/04/14 17:32:30;;;;;;;30.77;12.63;;;;;;;;;;8381619;28;20041;-77
2022/04/14 17:36:34;;;;;;;19.48;10.98;;;;;;;;;;8363359;28;20495;-77
2022/04/14 17:40:38;;;;;;;11.57;6.10;;;;;;;;;;8361104;28;20469;-77
2022/04/14 17:44:44;;;;;;;39.50;15.00;;;;;;;;;;8365648;28;20127;-77
2022/04/14 17:48:48;;;;;;;12.68;7.07;;;;;;;;;;8360770;28;20049;-78
2022/04/14 17:52:55;;;;;;;13.57;7.30;;;;;;;;;;8365159;28;20199;-77
2022/04/14 17:56:58;;;;;;;17.83;8.27;;;;;;;;;;8378701;28;20040;-77
2022/04/14 18:01:00;;;;;;;14.63;9.27;;;;;;;;;;8389695;28;20044;-76
2022/04/14 18:05:03;;;;;;;30.77;15.63;;;;;;;;;;8388358;28;20116;-77
2022/04/14 18:09:08;;;;;;;94.55;35.20;;;;;;;;;;8368923;28;20048;-77
2022/04/14 18:13:12;;;;;;;104.30;39.45;;;;;;;;;;8381369;28;20448;-76
2022/04/14 18:17:15;;;;;;;75.40;28.85;;;;;;;;;;8370349;28;20408;-77
2022/04/14 18:21:18;;;;;;;60.22;23.38;;;;;;;;;;8367665;28;20049;-77
2022/04/14 18:25:23;;;;;;;43.03;18.05;;;;;;;;;;8370599;28;20424;-77
2022/04/14 18:29:39;;;;;;;44.80;20.00;;;;;;;;;;8368324;28;20182;-77
2022/04/14 18:34:06;;;;;;;139.57;55.17;;;;;;;;;;8366973;28;20043;-77
2022/04/14 18:38:20;;;;;;;152.35;64.47;;;;;;;;;;8370141;28;20705;-77
2022/04/14 18:42:25;;;;;;;69.28;30.80;;;;;;;;;;8369091;28;20045;-76
2022/04/14 18:46:29;;;;;;;37.58;17.13;;;;;;;;;;8368393;28;20481;-77
2022/04/14 18:50:46;;;;;;;29.08;11.75;;;;;;;;;;8372328;28;20401;-77
2022/04/14 18:54:51;;;;;;;20.45;10.52;;;;;;;;;;8368058;28;20067;-77
2022/04/14 18:59:15;;;;;;;15.70;10.80;;;;;;;;;;8369642;28;20406;-76
2022/04/14 19:03:37;;;;;;;14.25;8.90;;;;;;;;;;8378432;28;20045;-77
2022/04/14 19:08:28;;;;;;;19.85;9.77;;;;;;;;;;8378766;28;21039;-77
2022/04/14 19:12:40;;;;;;;24.95;13.20;;;;;;;;;;8374737;28;20053;-77
2022/04/14 19:16:49;;;;;;;163.63;59.05;;;;;;;;;;8381346;28;20145;-77
2022/04/14 19:20:56;;;;;;;50.55;21.67;;;;;;;;;;8382318;28;20041;-75
2022/04/14 19:25:05;;;;;;;20.48;9.30;;;;;;;;;;8382162;28;20400;-77
2022/04/14 19:29:20;;;;;;;20.00;13.27;;;;;;;;;;8381784;28;20045;-77
2022/04/14 19:33:30;;;;;;;17.20;11.07;;;;;;;;;;8380584;28;20098;-75
2022/04/14 19:37:37;;;;;;;15.68;9.50;;;;;;;;;;8378884;28;20117;-77
2022/04/14 19:41:41;;;;;;;15.80;9.68;;;;;;;;;;8381483;28;20427;-78
2022/04/14 19:45:50;;;;;;;13.48;8.57;;;;;;;;;;8381946;28;20044;-77
2022/04/14 19:49:57;;;;;;;12.90;7.63;;;;;;;;;;8379031;28;20045;-76
2022/04/14 19:54:10;;;;;;;15.80;8.15;;;;;;;;;;8366383;28;20044;-77
2022/04/14 19:58:16;;;;;;;71.38;30.02;;;;;;;;;;8380963;28;20057;-76
2022/04/14 20:02:22;;;;;;;27.02;16.50;;;;;;;;;;8380861;28;20404;-76
2022/04/14 20:06:29;;;;;;;13.23;8.65;;;;;;;;;;8382286;28;20072;-77
2022/04/14 20:10:33;;;;;;;14.57;9.02;;;;;;;;;;8393414;28;20052;-76
2022/04/14 20:14:53;;;;;;;17.90;8.90;;;;;;;;;;8379023;28;20056;-77
2022/04/14 20:19:06;;;;;;;16.58;9.20;;;;;;;;;;8396614;28;20044;-77
2022/04/14 20:23:14;;;;;;;17.63;9.48;;;;;;;;;;8377672;28;20041;-77
2022/04/14 20:27:22;;;;;;;20.20;10.20;;;;;;;;;;8363369;28;20056;-77
2022/04/14 20:31:25;;;;;;;18.77;10.75;;;;;;;;;;8408256;28;20407;-77
2022/04/14 20:35:30;;;;;;;16.13;10.55;;;;;;;;;;8395869;28;20139;-77
2022/04/14 20:39:35;;;;;;;17.45;10.55;;;;;;;;;;8388228;28;20044;-77
2022/04/14 20:43:39;;;;;;;23.85;11.65;;;;;;;;;;8393455;28;20048;-77
2022/04/14 20:47:44;;;;;;;19.55;10.55;;;;;;;;;;8396880;28;20040;-76
2022/04/14 20:51:49;;;;;;;24.25;10.75;;;;;;;;;;8396722;28;20068;-77
2022/04/14 20:56:02;;;;;;;19.63;11.48;;;;;;;;;;8397356;28;20048;-77
2022/04/14 21:00:12;;;;;;;21.38;12.20;;;;;;;;;;8396232;28;20052;-77
2022/04/14 21:04:24;;;;;;;23.95;14.23;;;;;;;;;;8410441;28;20127;-77
2022/04/14 21:08:27;;;;;;;24.02;13.10;;;;;;;;;;8388373;28;20040;-77
2022/04/14 21:12:32;;;;;;;20.95;12.88;;;;;;;;;;8397843;28;20059;-77
2022/04/14 21:16:34;;;;;;;23.45;13.48;;;;;;;;;;8396069;28;20051;-77
2022/04/14 21:20:37;;;;;;;22.75;13.48;;;;;;;;;;8396523;28;20059;-77
2022/04/14 21:24:40;;;;;;;25.45;14.27;;;;;;;;;;8396320;28;20071;-77
2022/04/14 21:28:44;;;;;;;23.55;13.95;;;;;;;;;;8396778;28;20052;-77
2022/04/14 21:32:46;;;;;;;24.67;13.70;;;;;;;;;;8411147;28;20461;-77
2022/04/14 21:36:49;;;;;;;27.08;14.02;;;;;;;;;;8408505;28;20053;-76
2022/04/14 21:40:52;;;;;;;32.55;16.02;;;;;;;;;;8401666;28;20041;-76
2022/04/14 21:44:56;;;;;;;31.20;15.93;;;;;;;;;;8429246;28;20089;-76
2022/04/14 21:48:58;;;;;;;27.52;16.02;;;;;;;;;;8412949;28;20044;-76
2022/04/14 21:53:01;;;;;;;28.50;16.05;;;;;;;;;;8417292;28;20044;-76
2022/04/14 21:57:04;;;;;;;29.80;16.02;;;;;;;;;;8435299;28;20044;-76
2022/04/14 22:01:13;;;;;;;30.92;16.65;;;;;;;;;;8424275;28;20098;-76
2022/04/14 22:05:16;;;;;;;33.55;15.90;;;;;;;;;;8390722;28;20536;-76
2022/04/14 22:09:18;;;;;;;29.45;15.35;;;;;;;;;;8405620;28;20106;-76
2022/04/14 22:13:21;;;;;;;30.60;15.05;;;;;;;;;;8401244;28;20060;-77
2022/04/14 22:17:26;;;;;;;31.05;15.57;;;;;;;;;;8404879;28;20048;-77
2022/04/14 22:21:29;;;;;;;32.88;15.00;;;;;;;;;;8414291;28;20482;-77
2022/04/14 22:25:31;;;;;;;28.35;15.40;;;;;;;;;;8401119;28;20041;-77
2022/04/14 22:29:34;;;;;;;26.77;15.10;;;;;;;;;;8401302;28;20040;-77
2022/04/14 22:33:38;;;;;;;31.33;16.25;;;;;;;;;;8402107;28;20101;-77
2022/04/14 22:37:41;;;;;;;26.55;15.20;;;;;;;;;;8422102;28;20045;-78
2022/04/14 22:41:43;;;;;;;30.23;15.02;;;;;;;;;;8411380;28;20045;-78
2022/04/14 22:45:46;;;;;;;28.40;15.20;;;;;;;;;;8400425;28;20049;-77
2022/04/14 22:49:50;;;;;;;27.73;15.10;;;;;;;;;;8413211;28;20044;-78
2022/04/14 22:53:52;;;;;;;26.13;13.90;;;;;;;;;;8417174;28;20122;-77
2022/04/14 22:57:55;;;;;;;29.52;14.23;;;;;;;;;;8401234;28;20044;-77
2022/04/14 23:01:58;;;;;;;34.38;18.83;;;;;;;;;;8405621;28;20043;-77
2022/04/14 23:06:01;;;;;;;38.28;16.73;;;;;;;;;;8416802;28;20193;-77
2022/04/14 23:10:05;;;;;;;24.42;14.38;;;;;;;;;;8431261;28;20051;-78
2022/04/14 23:14:12;;;;;;;23.52;13.18;;;;;;;;;;8402813;28;20056;-77
2022/04/14 23:18:15;;;;;;;24.10;12.60;;;;;;;;;;8418992;28;20098;-77
2022/04/14 23:22:19;;;;;;;23.65;13.50;;;;;;;;;;8429760;28;20488;-77
2022/04/14 23:26:22;;;;;;;45.65;19.23;;;;;;;;;;8399304;28;20075;-77
2022/04/14 23:30:25;;;;;;;32.00;14.25;;;;;;;;;;8392371;28;20091;-77
2022/04/14 23:34:27;;;;;;;34.53;17.20;;;;;;;;;;8404014;28;20051;-77
2022/04/14 23:38:31;;;;;;;26.90;14.63;;;;;;;;;;8382537;28;20055;-78
2022/04/14 23:42:34;;;;;;;36.35;18.45;;;;;;;;;;8375225;28;20091;-76
2022/04/14 23:46:36;;;;;;;34.95;15.85;;;;;;;;;;8383333;28;20041;-77
2022/04/14 23:50:38;;;;;;;29.73;15.65;;;;;;;;;;8389222;28;20045;-77
2022/04/14 23:54:42;;;;;;;23.05;14.45;;;;;;;;;;8380948;28;20048;-77
2022/04/14 23:58:45;;;;;;;20.75;12.60;;;;;;;;;;8389445;28;20044;-77
